Cleveland, Ohio
Traffic Map
Current Weather Conditions
Cleveland, Ohio
Clear
Clear
28°
Feels Like: 30°
Wind Chill: 28° Ceiling: Unl
Heat Index: 30° Visibility: 10mi
Dew Point: 22° Wind: 14mph
Humidity: 69% Direction: 290° (WNW)
Pressure: 29.98in Gusts: 0mph
Raw Report DataKBKL 201753Z 29012KT 10SM CLR 28/22 A2998 RMK AO2 SLP147 T02780217 10306 20256 58004
Traffic Incident Summary
Active as of:
Severity:
Category:
InformationThere was an issue retrieving the traffic information for this location. Please try a different location or try again shortly.
Advertisements
Track Severe Weather on mobile